sensor_id;sensor_type;location;lat;lon;timestamp;P1;durP1;ratioP1;P2;durP2;ratioP2
18378;SDS011;27025;51.986;5.984;2023-08-31T00:02:18;4.23;;;3.77;;
18378;SDS011;27025;51.986;5.984;2023-08-31T00:04:44;7.63;;;4.00;;
18378;SDS011;27025;51.986;5.984;2023-08-31T00:07:10;5.50;;;3.67;;
18378;SDS011;27025;51.986;5.984;2023-08-31T00:09:36;5.10;;;3.67;;
18378;SDS011;27025;51.986;5.984;2023-08-31T00:12:02;5.10;;;4.00;;
18378;SDS011;27025;51.986;5.984;2023-08-31T00:14:28;5.33;;;3.50;;
18378;SDS011;27025;51.986;5.984;2023-08-31T00:16:54;6.23;;;3.90;;
18378;SDS011;27025;51.986;5.984;2023-08-31T00:19:22;4.40;;;3.83;;
18378;SDS011;27025;51.986;5.984;2023-08-31T00:21:48;3.93;;;3.53;;
18378;SDS011;27025;51.986;5.984;2023-08-31T00:24:14;5.10;;;3.83;;
18378;SDS011;27025;51.986;5.984;2023-08-31T00:26:40;6.87;;;3.73;;
18378;SDS011;27025;51.986;5.984;2023-08-31T00:29:10;4.97;;;3.67;;
18378;SDS011;27025;51.986;5.984;2023-08-31T00:31:36;4.17;;;3.70;;
18378;SDS011;27025;51.986;5.984;2023-08-31T00:34:03;5.77;;;4.00;;
18378;SDS011;27025;51.986;5.984;2023-08-31T00:36:32;6.97;;;4.00;;
18378;SDS011;27025;51.986;5.984;2023-08-31T00:39:02;5.80;;;4.63;;
18378;SDS011;27025;51.986;5.984;2023-08-31T00:41:30;7.73;;;4.37;;
18378;SDS011;27025;51.986;5.984;2023-08-31T00:43:57;5.57;;;3.70;;
18378;SDS011;27025;51.986;5.984;2023-08-31T00:46:23;10.10;;;4.50;;
18378;SDS011;27025;51.986;5.984;2023-08-31T00:48:52;6.60;;;4.43;;
18378;SDS011;27025;51.986;5.984;2023-08-31T00:51:18;4.57;;;3.90;;
18378;SDS011;27025;51.986;5.984;2023-08-31T00:53:44;6.03;;;3.70;;
18378;SDS011;27025;51.986;5.984;2023-08-31T00:56:11;6.30;;;4.07;;
18378;SDS011;27025;51.986;5.984;2023-08-31T00:58:38;6.63;;;4.47;;
18378;SDS011;27025;51.986;5.984;2023-08-31T01:01:22;7.40;;;4.97;;
18378;SDS011;27025;51.986;5.984;2023-08-31T01:04:11;8.93;;;5.40;;
18378;SDS011;27025;51.986;5.984;2023-08-31T01:06:59;7.97;;;5.13;;
18378;SDS011;27025;51.986;5.984;2023-08-31T01:12:31;8.73;;;6.03;;
18378;SDS011;27025;51.986;5.984;2023-08-31T01:15:04;8.10;;;6.03;;
18378;SDS011;27025;51.986;5.984;2023-08-31T01:17:37;10.37;;;6.70;;
18378;SDS011;27025;51.986;5.984;2023-08-31T01:20:04;12.00;;;8.20;;
18378;SDS011;27025;51.986;5.984;2023-08-31T01:22:46;9.70;;;8.00;;
18378;SDS011;27025;51.986;5.984;2023-08-31T01:25:13;11.57;;;8.20;;
18378;SDS011;27025;51.986;5.984;2023-08-31T01:27:39;11.53;;;8.53;;
18378;SDS011;27025;51.986;5.984;2023-08-31T01:30:06;9.03;;;8.03;;
18378;SDS011;27025;51.986;5.984;2023-08-31T01:32:33;12.93;;;8.67;;
18378;SDS011;27025;51.986;5.984;2023-08-31T01:35:00;11.70;;;9.33;;
18378;SDS011;27025;51.986;5.984;2023-08-31T01:38:08;13.87;;;10.53;;
18378;SDS011;27025;51.986;5.984;2023-08-31T01:42:45;15.90;;;11.17;;
18378;SDS011;27025;51.986;5.984;2023-08-31T01:45:13;12.83;;;11.50;;
18378;SDS011;27025;51.986;5.984;2023-08-31T01:47:40;18.03;;;12.10;;
18378;SDS011;27025;51.986;5.984;2023-08-31T01:50:06;12.13;;;10.93;;
18378;SDS011;27025;51.986;5.984;2023-08-31T01:52:32;17.43;;;12.60;;
18378;SDS011;27025;51.986;5.984;2023-08-31T01:54:58;16.00;;;13.83;;
18378;SDS011;27025;51.986;5.984;2023-08-31T01:57:24;18.30;;;14.60;;
18378;SDS011;27025;51.986;5.984;2023-08-31T01:59:51;17.33;;;14.27;;
18378;SDS011;27025;51.986;5.984;2023-08-31T02:02:17;19.50;;;14.30;;
18378;SDS011;27025;51.986;5.984;2023-08-31T02:04:43;17.10;;;14.47;;
18378;SDS011;27025;51.986;5.984;2023-08-31T02:07:09;17.30;;;14.47;;
18378;SDS011;27025;51.986;5.984;2023-08-31T02:09:35;16.93;;;15.13;;
18378;SDS011;27025;51.986;5.984;2023-08-31T02:12:01;16.93;;;15.03;;
18378;SDS011;27025;51.986;5.984;2023-08-31T02:14:27;16.80;;;15.20;;
18378;SDS011;27025;51.986;5.984;2023-08-31T02:16:55;17.33;;;14.83;;
18378;SDS011;27025;51.986;5.984;2023-08-31T02:19:21;17.13;;;15.33;;
18378;SDS011;27025;51.986;5.984;2023-08-31T02:21:47;17.97;;;14.90;;
18378;SDS011;27025;51.986;5.984;2023-08-31T02:24:13;16.27;;;14.73;;
18378;SDS011;27025;51.986;5.984;2023-08-31T02:26:39;18.23;;;15.53;;
18378;SDS011;27025;51.986;5.984;2023-08-31T02:29:05;19.97;;;15.50;;
18378;SDS011;27025;51.986;5.984;2023-08-31T02:31:31;18.00;;;16.10;;
18378;SDS011;27025;51.986;5.984;2023-08-31T02:33:57;18.10;;;14.57;;
18378;SDS011;27025;51.986;5.984;2023-08-31T02:36:23;17.13;;;15.27;;
18378;SDS011;27025;51.986;5.984;2023-08-31T02:38:49;16.97;;;14.93;;
18378;SDS011;27025;51.986;5.984;2023-08-31T02:41:15;17.90;;;16.07;;
18378;SDS011;27025;51.986;5.984;2023-08-31T02:43:42;19.93;;;16.10;;
18378;SDS011;27025;51.986;5.984;2023-08-31T02:46:08;17.00;;;15.30;;
18378;SDS011;27025;51.986;5.984;2023-08-31T02:48:34;18.07;;;16.17;;
18378;SDS011;27025;51.986;5.984;2023-08-31T02:51:00;17.93;;;16.03;;
18378;SDS011;27025;51.986;5.984;2023-08-31T02:53:27;20.23;;;16.83;;
18378;SDS011;27025;51.986;5.984;2023-08-31T02:55:53;20.13;;;18.07;;
18378;SDS011;27025;51.986;5.984;2023-08-31T02:58:19;19.57;;;16.40;;
18378;SDS011;27025;51.986;5.984;2023-08-31T03:00:45;21.00;;;17.43;;
18378;SDS011;27025;51.986;5.984;2023-08-31T03:03:16;19.77;;;17.30;;
18378;SDS011;27025;51.986;5.984;2023-08-31T03:05:43;22.77;;;17.47;;
18378;SDS011;27025;51.986;5.984;2023-08-31T03:08:09;19.80;;;17.73;;
18378;SDS011;27025;51.986;5.984;2023-08-31T03:10:35;21.50;;;19.23;;
18378;SDS011;27025;51.986;5.984;2023-08-31T03:13:02;21.73;;;19.47;;
18378;SDS011;27025;51.986;5.984;2023-08-31T03:15:28;22.80;;;19.77;;
18378;SDS011;27025;51.986;5.984;2023-08-31T03:17:54;21.77;;;19.67;;
18378;SDS011;27025;51.986;5.984;2023-08-31T03:20:20;21.90;;;19.67;;
18378;SDS011;27025;51.986;5.984;2023-08-31T03:22:46;22.53;;;20.13;;
18378;SDS011;27025;51.986;5.984;2023-08-31T03:25:13;22.77;;;20.27;;
18378;SDS011;27025;51.986;5.984;2023-08-31T03:27:39;22.43;;;20.33;;
18378;SDS011;27025;51.986;5.984;2023-08-31T03:30:05;23.40;;;20.93;;
18378;SDS011;27025;51.986;5.984;2023-08-31T03:32:31;21.93;;;19.60;;
18378;SDS011;27025;51.986;5.984;2023-08-31T03:34:57;22.87;;;20.37;;
18378;SDS011;27025;51.986;5.984;2023-08-31T03:37:23;23.27;;;20.60;;
18378;SDS011;27025;51.986;5.984;2023-08-31T03:39:49;25.33;;;20.67;;
18378;SDS011;27025;51.986;5.984;2023-08-31T03:42:15;23.53;;;21.00;;
18378;SDS011;27025;51.986;5.984;2023-08-31T03:44:41;23.70;;;21.27;;
18378;SDS011;27025;51.986;5.984;2023-08-31T03:47:07;25.57;;;22.93;;
18378;SDS011;27025;51.986;5.984;2023-08-31T03:49:33;25.53;;;22.97;;
18378;SDS011;27025;51.986;5.984;2023-08-31T03:52:00;26.63;;;23.87;;
18378;SDS011;27025;51.986;5.984;2023-08-31T03:54:26;27.03;;;24.13;;
18378;SDS011;27025;51.986;5.984;2023-08-31T03:56:52;28.13;;;23.30;;
18378;SDS011;27025;51.986;5.984;2023-08-31T03:59:18;25.57;;;22.93;;
18378;SDS011;27025;51.986;5.984;2023-08-31T04:01:44;24.57;;;21.97;;
18378;SDS011;27025;51.986;5.984;2023-08-31T04:04:11;27.67;;;23.70;;
18378;SDS011;27025;51.986;5.984;2023-08-31T04:06:37;31.27;;;24.33;;
18378;SDS011;27025;51.986;5.984;2023-08-31T04:09:03;26.23;;;23.63;;
18378;SDS011;27025;51.986;5.984;2023-08-31T04:11:29;27.87;;;23.97;;
18378;SDS011;27025;51.986;5.984;2023-08-31T04:13:55;25.77;;;23.23;;
18378;SDS011;27025;51.986;5.984;2023-08-31T04:16:21;25.77;;;22.97;;
18378;SDS011;27025;51.986;5.984;2023-08-31T04:18:47;25.43;;;22.83;;
18378;SDS011;27025;51.986;5.984;2023-08-31T04:21:16;24.67;;;22.23;;
18378;SDS011;27025;51.986;5.984;2023-08-31T04:23:43;24.63;;;21.73;;
18378;SDS011;27025;51.986;5.984;2023-08-31T04:26:13;23.83;;;21.33;;
18378;SDS011;27025;51.986;5.984;2023-08-31T04:28:39;24.40;;;21.90;;
18378;SDS011;27025;51.986;5.984;2023-08-31T04:31:09;24.50;;;21.63;;
18378;SDS011;27025;51.986;5.984;2023-08-31T04:33:36;24.80;;;20.87;;
18378;SDS011;27025;51.986;5.984;2023-08-31T04:36:02;23.30;;;20.80;;
18378;SDS011;27025;51.986;5.984;2023-08-31T04:38:29;23.80;;;20.13;;
18378;SDS011;27025;51.986;5.984;2023-08-31T04:40:57;22.97;;;20.40;;
18378;SDS011;27025;51.986;5.984;2023-08-31T04:43:24;25.50;;;20.00;;
18378;SDS011;27025;51.986;5.984;2023-08-31T04:45:51;22.03;;;19.73;;
18378;SDS011;27025;51.986;5.984;2023-08-31T04:48:17;22.03;;;19.60;;
18378;SDS011;27025;51.986;5.984;2023-08-31T04:50:43;24.40;;;20.47;;
18378;SDS011;27025;51.986;5.984;2023-08-31T04:53:09;24.30;;;18.93;;
18378;SDS011;27025;51.986;5.984;2023-08-31T04:55:35;23.83;;;20.43;;
18378;SDS011;27025;51.986;5.984;2023-08-31T04:58:02;23.33;;;20.60;;
18378;SDS011;27025;51.986;5.984;2023-08-31T05:00:28;25.20;;;19.60;;
18378;SDS011;27025;51.986;5.984;2023-08-31T05:02:55;21.60;;;19.00;;
18378;SDS011;27025;51.986;5.984;2023-08-31T05:05:21;21.53;;;19.03;;
18378;SDS011;27025;51.986;5.984;2023-08-31T05:07:47;23.20;;;18.73;;
18378;SDS011;27025;51.986;5.984;2023-08-31T05:10:13;25.17;;;19.23;;
18378;SDS011;27025;51.986;5.984;2023-08-31T05:12:39;24.43;;;18.50;;
18378;SDS011;27025;51.986;5.984;2023-08-31T05:15:05;22.30;;;19.73;;
18378;SDS011;27025;51.986;5.984;2023-08-31T05:17:31;21.37;;;19.07;;
18378;SDS011;27025;51.986;5.984;2023-08-31T05:19:57;21.43;;;19.20;;
18378;SDS011;27025;51.986;5.984;2023-08-31T05:22:23;24.93;;;19.30;;
18378;SDS011;27025;51.986;5.984;2023-08-31T05:24:49;23.37;;;20.87;;
18378;SDS011;27025;51.986;5.984;2023-08-31T05:27:15;25.20;;;20.67;;
18378;SDS011;27025;51.986;5.984;2023-08-31T05:29:41;27.50;;;20.33;;
18378;SDS011;27025;51.986;5.984;2023-08-31T05:32:07;24.00;;;20.07;;
18378;SDS011;27025;51.986;5.984;2023-08-31T05:34:33;24.90;;;21.60;;
18378;SDS011;27025;51.986;5.984;2023-08-31T05:37:03;24.57;;;21.57;;
18378;SDS011;27025;51.986;5.984;2023-08-31T05:39:30;25.10;;;22.30;;
18378;SDS011;27025;51.986;5.984;2023-08-31T05:41:56;26.60;;;22.33;;
18378;SDS011;27025;51.986;5.984;2023-08-31T05:44:22;26.40;;;23.63;;
18378;SDS011;27025;51.986;5.984;2023-08-31T05:46:48;27.70;;;23.47;;
18378;SDS011;27025;51.986;5.984;2023-08-31T05:49:14;27.83;;;24.33;;
18378;SDS011;27025;51.986;5.984;2023-08-31T05:51:40;27.33;;;24.43;;
18378;SDS011;27025;51.986;5.984;2023-08-31T05:54:06;28.80;;;25.33;;
18378;SDS011;27025;51.986;5.984;2023-08-31T05:56:36;28.80;;;25.63;;
18378;SDS011;27025;51.986;5.984;2023-08-31T05:59:04;31.30;;;26.40;;
18378;SDS011;27025;51.986;5.984;2023-08-31T06:01:30;29.87;;;26.77;;
18378;SDS011;27025;51.986;5.984;2023-08-31T06:03:56;31.03;;;27.30;;
18378;SDS011;27025;51.986;5.984;2023-08-31T06:06:22;30.00;;;26.80;;
18378;SDS011;27025;51.986;5.984;2023-08-31T06:08:49;30.40;;;27.27;;
18378;SDS011;27025;51.986;5.984;2023-08-31T06:11:15;30.90;;;27.43;;
18378;SDS011;27025;51.986;5.984;2023-08-31T06:13:41;29.80;;;26.70;;
18378;SDS011;27025;51.986;5.984;2023-08-31T06:16:07;32.80;;;27.87;;
18378;SDS011;27025;51.986;5.984;2023-08-31T06:18:33;32.30;;;29.00;;
18378;SDS011;27025;51.986;5.984;2023-08-31T06:20:59;32.17;;;27.17;;
18378;SDS011;27025;51.986;5.984;2023-08-31T06:23:25;31.03;;;27.80;;
18378;SDS011;27025;51.986;5.984;2023-08-31T06:25:51;28.87;;;25.97;;
18378;SDS011;27025;51.986;5.984;2023-08-31T06:28:17;19.30;;;17.40;;
18378;SDS011;27025;51.986;5.984;2023-08-31T06:30:43;28.00;;;24.97;;
18378;SDS011;27025;51.986;5.984;2023-08-31T06:33:13;27.10;;;24.17;;
18378;SDS011;27025;51.986;5.984;2023-08-31T06:35:39;26.00;;;23.40;;
18378;SDS011;27025;51.986;5.984;2023-08-31T06:38:05;25.57;;;22.90;;
18378;SDS011;27025;51.986;5.984;2023-08-31T06:42:59;26.50;;;23.30;;
18378;SDS011;27025;51.986;5.984;2023-08-31T06:45:25;26.60;;;23.87;;
18378;SDS011;27025;51.986;5.984;2023-08-31T06:47:51;25.53;;;23.03;;
18378;SDS011;27025;51.986;5.984;2023-08-31T06:50:17;24.77;;;22.37;;
18378;SDS011;27025;51.986;5.984;2023-08-31T06:52:43;23.67;;;20.87;;
18378;SDS011;27025;51.986;5.984;2023-08-31T06:55:11;23.33;;;20.93;;
18378;SDS011;27025;51.986;5.984;2023-08-31T06:57:38;22.23;;;19.93;;
18378;SDS011;27025;51.986;5.984;2023-08-31T07:00:04;22.40;;;20.07;;
18378;SDS011;27025;51.986;5.984;2023-08-31T07:02:32;22.83;;;20.63;;
18378;SDS011;27025;51.986;5.984;2023-08-31T07:04:59;22.80;;;20.20;;
18378;SDS011;27025;51.986;5.984;2023-08-31T07:07:26;22.23;;;20.03;;
18378;SDS011;27025;51.986;5.984;2023-08-31T07:09:52;24.43;;;22.03;;
18378;SDS011;27025;51.986;5.984;2023-08-31T07:12:19;24.87;;;22.17;;
18378;SDS011;27025;51.986;5.984;2023-08-31T07:14:45;25.07;;;22.53;;
18378;SDS011;27025;51.986;5.984;2023-08-31T07:17:11;24.97;;;21.80;;
18378;SDS011;27025;51.986;5.984;2023-08-31T07:19:37;24.33;;;21.83;;
18378;SDS011;27025;51.986;5.984;2023-08-31T07:22:04;24.67;;;22.37;;
18378;SDS011;27025;51.986;5.984;2023-08-31T07:24:31;23.13;;;20.87;;
18378;SDS011;27025;51.986;5.984;2023-08-31T07:26:57;23.53;;;21.03;;
18378;SDS011;27025;51.986;5.984;2023-08-31T07:29:23;22.53;;;18.53;;
18378;SDS011;27025;51.986;5.984;2023-08-31T07:31:49;23.40;;;20.00;;
18378;SDS011;27025;51.986;5.984;2023-08-31T07:34:15;21.37;;;19.23;;
18378;SDS011;27025;51.986;5.984;2023-08-31T07:36:41;22.33;;;19.90;;
18378;SDS011;27025;51.986;5.984;2023-08-31T07:39:08;21.10;;;18.90;;
18378;SDS011;27025;51.986;5.984;2023-08-31T07:41:34;19.17;;;17.17;;
18378;SDS011;27025;51.986;5.984;2023-08-31T07:44:00;19.47;;;17.47;;
18378;SDS011;27025;51.986;5.984;2023-08-31T07:46:27;18.00;;;16.07;;
18378;SDS011;27025;51.986;5.984;2023-08-31T07:48:53;17.90;;;15.97;;
18378;SDS011;27025;51.986;5.984;2023-08-31T07:51:20;18.93;;;17.07;;
18378;SDS011;27025;51.986;5.984;2023-08-31T07:53:48;18.87;;;16.87;;
18378;SDS011;27025;51.986;5.984;2023-08-31T07:56:14;19.70;;;15.73;;
18378;SDS011;27025;51.986;5.984;2023-08-31T07:58:40;15.73;;;14.13;;
18378;SDS011;27025;51.986;5.984;2023-08-31T08:01:06;17.23;;;14.70;;
18378;SDS011;27025;51.986;5.984;2023-08-31T08:03:32;14.97;;;13.33;;
18378;SDS011;27025;51.986;5.984;2023-08-31T08:05:59;14.87;;;13.37;;
18378;SDS011;27025;51.986;5.984;2023-08-31T08:08:25;14.50;;;12.80;;
18378;SDS011;27025;51.986;5.984;2023-08-31T08:10:54;17.47;;;13.83;;
18378;SDS011;27025;51.986;5.984;2023-08-31T08:13:20;15.10;;;12.97;;
18378;SDS011;27025;51.986;5.984;2023-08-31T08:15:46;15.53;;;9.93;;
18378;SDS011;27025;51.986;5.984;2023-08-31T08:18:13;14.07;;;10.67;;
18378;SDS011;27025;51.986;5.984;2023-08-31T08:20:39;14.00;;;10.73;;
18378;SDS011;27025;51.986;5.984;2023-08-31T08:23:05;16.10;;;12.03;;
18378;SDS011;27025;51.986;5.984;2023-08-31T08:25:32;15.67;;;12.73;;
18378;SDS011;27025;51.986;5.984;2023-08-31T08:27:58;16.23;;;13.23;;
18378;SDS011;27025;51.986;5.984;2023-08-31T08:30:24;17.37;;;14.47;;
18378;SDS011;27025;51.986;5.984;2023-08-31T08:32:50;16.73;;;14.43;;
18378;SDS011;27025;51.986;5.984;2023-08-31T08:35:16;18.47;;;14.70;;
18378;SDS011;27025;51.986;5.984;2023-08-31T08:37:42;17.83;;;14.77;;
18378;SDS011;27025;51.986;5.984;2023-08-31T08:40:09;16.90;;;14.50;;
18378;SDS011;27025;51.986;5.984;2023-08-31T08:42:42;16.37;;;14.67;;
18378;SDS011;27025;51.986;5.984;2023-08-31T08:45:12;16.67;;;14.97;;
18378;SDS011;27025;51.986;5.984;2023-08-31T08:47:40;17.50;;;14.27;;
18378;SDS011;27025;51.986;5.984;2023-08-31T08:50:06;15.03;;;13.20;;
18378;SDS011;27025;51.986;5.984;2023-08-31T08:52:33;16.20;;;13.63;;
18378;SDS011;27025;51.986;5.984;2023-08-31T08:55:00;13.83;;;12.50;;
18378;SDS011;27025;51.986;5.984;2023-08-31T08:57:27;13.87;;;12.47;;
18378;SDS011;27025;51.986;5.984;2023-08-31T08:59:53;14.70;;;12.70;;
18378;SDS011;27025;51.986;5.984;2023-08-31T09:02:19;14.60;;;13.07;;
18378;SDS011;27025;51.986;5.984;2023-08-31T09:04:45;13.83;;;12.40;;
18378;SDS011;27025;51.986;5.984;2023-08-31T09:07:12;13.03;;;11.77;;
18378;SDS011;27025;51.986;5.984;2023-08-31T09:09:50;14.20;;;12.30;;
18378;SDS011;27025;51.986;5.984;2023-08-31T09:12:16;14.37;;;11.53;;
18378;SDS011;27025;51.986;5.984;2023-08-31T09:14:42;13.73;;;11.40;;
18378;SDS011;27025;51.986;5.984;2023-08-31T09:17:08;15.90;;;12.07;;
18378;SDS011;27025;51.986;5.984;2023-08-31T09:19:34;11.80;;;10.63;;
18378;SDS011;27025;51.986;5.984;2023-08-31T09:22:00;11.67;;;10.47;;
18378;SDS011;27025;51.986;5.984;2023-08-31T09:24:27;13.37;;;9.30;;
18378;SDS011;27025;51.986;5.984;2023-08-31T09:26:55;9.77;;;8.13;;
18378;SDS011;27025;51.986;5.984;2023-08-31T09:29:21;10.40;;;7.85;;
18378;SDS011;27025;51.986;5.984;2023-08-31T09:31:47;8.90;;;7.40;;
18378;SDS011;27025;51.986;5.984;2023-08-31T09:34:14;8.82;;;7.55;;
18378;SDS011;27025;51.986;5.984;2023-08-31T09:36:41;7.85;;;5.75;;
18378;SDS011;27025;51.986;5.984;2023-08-31T09:39:07;8.50;;;5.57;;
18378;SDS011;27025;51.986;5.984;2023-08-31T09:41:34;6.78;;;5.40;;
18378;SDS011;27025;51.986;5.984;2023-08-31T09:44:16;8.15;;;5.47;;
18378;SDS011;27025;51.986;5.984;2023-08-31T09:46:43;8.10;;;5.87;;
18378;SDS011;27025;51.986;5.984;2023-08-31T09:49:10;10.37;;;5.50;;
18378;SDS011;27025;51.986;5.984;2023-08-31T09:51:38;8.67;;;5.07;;
18378;SDS011;27025;51.986;5.984;2023-08-31T09:54:05;8.30;;;4.88;;
18378;SDS011;27025;51.986;5.984;2023-08-31T09:56:32;6.40;;;4.80;;
18378;SDS011;27025;51.986;5.984;2023-08-31T09:58:59;5.68;;;4.00;;
18378;SDS011;27025;51.986;5.984;2023-08-31T10:01:25;6.53;;;4.20;;
18378;SDS011;27025;51.986;5.984;2023-08-31T10:03:51;4.43;;;3.38;;
18378;SDS011;27025;51.986;5.984;2023-08-31T10:06:18;4.75;;;3.53;;
18378;SDS011;27025;51.986;5.984;2023-08-31T10:08:44;4.43;;;3.60;;
18378;SDS011;27025;51.986;5.984;2023-08-31T10:11:10;6.97;;;3.97;;
18378;SDS011;27025;51.986;5.984;2023-08-31T10:13:38;6.33;;;3.90;;
18378;SDS011;27025;51.986;5.984;2023-08-31T10:16:05;6.93;;;4.30;;
18378;SDS011;27025;51.986;5.984;2023-08-31T10:18:32;16.48;;;8.00;;
18378;SDS011;27025;51.986;5.984;2023-08-31T10:21:00;9.40;;;5.13;;
18378;SDS011;27025;51.986;5.984;2023-08-31T10:23:27;7.70;;;5.27;;
18378;SDS011;27025;51.986;5.984;2023-08-31T10:28:23;5.70;;;4.53;;
18378;SDS011;27025;51.986;5.984;2023-08-31T10:31:02;8.03;;;4.50;;
18378;SDS011;27025;51.986;5.984;2023-08-31T10:33:33;7.40;;;5.17;;
18378;SDS011;27025;51.986;5.984;2023-08-31T10:35:59;8.60;;;4.87;;
18378;SDS011;27025;51.986;5.984;2023-08-31T10:38:26;6.37;;;4.93;;
18378;SDS011;27025;51.986;5.984;2023-08-31T10:41:03;8.10;;;4.80;;
18378;SDS011;27025;51.986;5.984;2023-08-31T10:43:55;8.80;;;4.80;;
18378;SDS011;27025;51.986;5.984;2023-08-31T10:46:25;6.30;;;4.83;;
18378;SDS011;27025;51.986;5.984;2023-08-31T10:48:52;8.37;;;4.50;;
18378;SDS011;27025;51.986;5.984;2023-08-31T10:51:21;7.17;;;4.10;;
18378;SDS011;27025;51.986;5.984;2023-08-31T10:53:47;5.13;;;3.83;;
18378;SDS011;27025;51.986;5.984;2023-08-31T10:56:15;5.90;;;3.70;;
18378;SDS011;27025;51.986;5.984;2023-08-31T10:58:41;4.73;;;3.00;;
18378;SDS011;27025;51.986;5.984;2023-08-31T11:01:07;3.50;;;2.37;;
18378;SDS011;27025;51.986;5.984;2023-08-31T11:03:45;3.83;;;2.10;;
18378;SDS011;27025;51.986;5.984;2023-08-31T11:06:19;4.07;;;1.93;;
18378;SDS011;27025;51.986;5.984;2023-08-31T11:08:46;5.05;;;2.00;;
18378;SDS011;27025;51.986;5.984;2023-08-31T11:11:12;3.78;;;1.95;;
18378;SDS011;27025;51.986;5.984;2023-08-31T11:13:38;2.97;;;1.80;;
18378;SDS011;27025;51.986;5.984;2023-08-31T11:16:04;2.95;;;1.70;;
18378;SDS011;27025;51.986;5.984;2023-08-31T11:18:31;3.67;;;1.88;;
18378;SDS011;27025;51.986;5.984;2023-08-31T11:20:57;4.47;;;2.13;;
18378;SDS011;27025;51.986;5.984;2023-08-31T11:23:25;4.18;;;1.85;;
18378;SDS011;27025;51.986;5.984;2023-08-31T11:25:51;5.50;;;2.17;;
18378;SDS011;27025;51.986;5.984;2023-08-31T11:28:17;4.50;;;2.40;;
18378;SDS011;27025;51.986;5.984;2023-08-31T11:30:44;3.25;;;2.03;;
18378;SDS011;27025;51.986;5.984;2023-08-31T11:33:11;4.30;;;2.30;;
18378;SDS011;27025;51.986;5.984;2023-08-31T11:35:40;4.23;;;2.30;;
18378;SDS011;27025;51.986;5.984;2023-08-31T11:38:06;3.45;;;2.15;;
18378;SDS011;27025;51.986;5.984;2023-08-31T11:40:32;4.05;;;2.28;;
18378;SDS011;27025;51.986;5.984;2023-08-31T11:42:58;4.32;;;2.20;;
18378;SDS011;27025;51.986;5.984;2023-08-31T11:45:28;6.15;;;2.60;;
18378;SDS011;27025;51.986;5.984;2023-08-31T11:47:55;4.80;;;2.60;;
18378;SDS011;27025;51.986;5.984;2023-08-31T11:50:21;5.30;;;2.35;;
18378;SDS011;27025;51.986;5.984;2023-08-31T11:52:47;4.93;;;2.20;;
18378;SDS011;27025;51.986;5.984;2023-08-31T11:55:14;3.72;;;1.83;;
18378;SDS011;27025;51.986;5.984;2023-08-31T11:57:48;3.55;;;1.65;;
18378;SDS011;27025;51.986;5.984;2023-08-31T12:00:16;3.08;;;1.35;;
18378;SDS011;27025;51.986;5.984;2023-08-31T12:02:42;2.90;;;1.48;;
18378;SDS011;27025;51.986;5.984;2023-08-31T12:05:11;2.35;;;1.30;;
18378;SDS011;27025;51.986;5.984;2023-08-31T12:07:40;2.78;;;1.50;;
18378;SDS011;27025;51.986;5.984;2023-08-31T12:10:07;3.38;;;1.50;;
18378;SDS011;27025;51.986;5.984;2023-08-31T12:12:34;3.90;;;1.50;;
18378;SDS011;27025;51.986;5.984;2023-08-31T12:15:02;4.28;;;1.45;;
18378;SDS011;27025;51.986;5.984;2023-08-31T12:17:31;2.88;;;1.50;;
18378;SDS011;27025;51.986;5.984;2023-08-31T12:20:04;5.15;;;1.50;;
18378;SDS011;27025;51.986;5.984;2023-08-31T12:22:30;2.47;;;1.40;;
18378;SDS011;27025;51.986;5.984;2023-08-31T12:24:56;3.90;;;1.40;;
18378;SDS011;27025;51.986;5.984;2023-08-31T12:27:22;3.33;;;1.42;;
18378;SDS011;27025;51.986;5.984;2023-08-31T12:29:48;3.60;;;1.67;;
18378;SDS011;27025;51.986;5.984;2023-08-31T12:32:15;4.35;;;2.00;;
18378;SDS011;27025;51.986;5.984;2023-08-31T12:34:44;3.30;;;1.98;;
18378;SDS011;27025;51.986;5.984;2023-08-31T12:37:10;3.83;;;2.00;;
18378;SDS011;27025;51.986;5.984;2023-08-31T12:39:37;4.95;;;1.90;;
18378;SDS011;27025;51.986;5.984;2023-08-31T12:42:03;2.88;;;1.48;;
18378;SDS011;27025;51.986;5.984;2023-08-31T12:44:29;4.38;;;1.52;;
18378;SDS011;27025;51.986;5.984;2023-08-31T12:46:56;3.03;;;1.35;;
18378;SDS011;27025;51.986;5.984;2023-08-31T12:49:22;2.08;;;1.20;;
18378;SDS011;27025;51.986;5.984;2023-08-31T12:51:48;3.40;;;1.30;;
18378;SDS011;27025;51.986;5.984;2023-08-31T12:54:15;2.33;;;1.38;;
18378;SDS011;27025;51.986;5.984;2023-08-31T12:56:41;1.92;;;1.30;;
18378;SDS011;27025;51.986;5.984;2023-08-31T12:59:08;2.17;;;1.23;;
18378;SDS011;27025;51.986;5.984;2023-08-31T13:01:34;3.33;;;1.45;;
18378;SDS011;27025;51.986;5.984;2023-08-31T13:04:01;3.78;;;1.30;;
18378;SDS011;27025;51.986;5.984;2023-08-31T13:06:28;2.15;;;1.30;;
18378;SDS011;27025;51.986;5.984;2023-08-31T13:08:54;2.33;;;1.30;;
18378;SDS011;27025;51.986;5.984;2023-08-31T13:11:20;2.23;;;1.30;;
18378;SDS011;27025;51.986;5.984;2023-08-31T13:13:48;4.38;;;1.48;;
18378;SDS011;27025;51.986;5.984;2023-08-31T13:16:18;3.15;;;1.50;;
18378;SDS011;27025;51.986;5.984;2023-08-31T13:18:44;3.57;;;1.40;;
18378;SDS011;27025;51.986;5.984;2023-08-31T13:21:10;2.60;;;1.40;;
18378;SDS011;27025;51.986;5.984;2023-08-31T13:23:36;2.85;;;1.38;;
18378;SDS011;27025;51.986;5.984;2023-08-31T13:26:02;4.17;;;1.47;;
18378;SDS011;27025;51.986;5.984;2023-08-31T13:28:28;5.38;;;1.55;;
18378;SDS011;27025;51.986;5.984;2023-08-31T13:30:57;3.30;;;1.40;;
18378;SDS011;27025;51.986;5.984;2023-08-31T13:33:25;3.30;;;1.55;;
18378;SDS011;27025;51.986;5.984;2023-08-31T13:35:53;4.70;;;1.60;;
18378;SDS011;27025;51.986;5.984;2023-08-31T13:38:19;2.75;;;1.50;;
18378;SDS011;27025;51.986;5.984;2023-08-31T13:40:45;3.72;;;1.40;;
18378;SDS011;27025;51.986;5.984;2023-08-31T13:43:11;2.88;;;1.60;;
18378;SDS011;27025;51.986;5.984;2023-08-31T13:45:37;3.10;;;1.50;;
18378;SDS011;27025;51.986;5.984;2023-08-31T13:48:04;3.45;;;1.63;;
18378;SDS011;27025;51.986;5.984;2023-08-31T13:50:30;3.95;;;1.50;;
18378;SDS011;27025;51.986;5.984;2023-08-31T13:52:56;2.30;;;1.30;;
18378;SDS011;27025;51.986;5.984;2023-08-31T13:55:22;4.00;;;1.50;;
18378;SDS011;27025;51.986;5.984;2023-08-31T13:57:48;2.22;;;1.30;;
18378;SDS011;27025;51.986;5.984;2023-08-31T14:00:15;3.47;;;1.50;;
18378;SDS011;27025;51.986;5.984;2023-08-31T14:02:42;3.10;;;1.55;;
18378;SDS011;27025;51.986;5.984;2023-08-31T14:05:11;4.03;;;1.60;;
18378;SDS011;27025;51.986;5.984;2023-08-31T14:07:37;3.63;;;1.50;;
18378;SDS011;27025;51.986;5.984;2023-08-31T14:10:03;3.80;;;1.70;;
18378;SDS011;27025;51.986;5.984;2023-08-31T14:12:30;2.30;;;1.48;;
18378;SDS011;27025;51.986;5.984;2023-08-31T14:14:56;3.13;;;1.58;;
18378;SDS011;27025;51.986;5.984;2023-08-31T14:17:23;2.38;;;1.48;;
18378;SDS011;27025;51.986;5.984;2023-08-31T14:19:49;3.33;;;1.52;;
18378;SDS011;27025;51.986;5.984;2023-08-31T14:22:15;2.93;;;1.67;;
18378;SDS011;27025;51.986;5.984;2023-08-31T14:24:41;3.92;;;1.40;;
18378;SDS011;27025;51.986;5.984;2023-08-31T14:27:07;2.73;;;1.47;;
18378;SDS011;27025;51.986;5.984;2023-08-31T14:29:33;4.13;;;1.70;;
18378;SDS011;27025;51.986;5.984;2023-08-31T14:32:00;3.15;;;1.60;;
18378;SDS011;27025;51.986;5.984;2023-08-31T14:34:26;3.58;;;1.70;;
18378;SDS011;27025;51.986;5.984;2023-08-31T14:36:52;3.42;;;1.70;;
18378;SDS011;27025;51.986;5.984;2023-08-31T14:39:22;2.83;;;1.40;;
18378;SDS011;27025;51.986;5.984;2023-08-31T14:41:54;4.13;;;1.63;;
18378;SDS011;27025;51.986;5.984;2023-08-31T14:44:20;3.33;;;1.70;;